Time;durP1;ratioP1;P1;durP2;ratioP2;P2;SDS_P1;SDS_P2;PMS_P1;PMS_P2;Temp;Humidity;BMP_temperature;BMP_pressure;BME280_temperature;BME280_humidity;BME280_pressure;Samples;Min_cycle;Max_cycle;Signal;HPM_P1;HPM_P2
2020/12/03 00:02:00;;;;;;;11.75;4.30;;;6.20;99.90;;;;;;10452855;28;20040;-51
2020/12/03 00:07:23;;;;;;;17.27;4.00;;;6.10;99.90;;;;;;10443197;28;20537;-51
2020/12/03 00:12:59;;;;;;;14.93;5.15;;;6.10;99.90;;;;;;10447298;28;20106;-51
2020/12/03 00:18:20;;;;;;;15.23;6.28;;;6.10;99.90;;;;;;10428291;28;20036;-51
2020/12/03 00:23:42;;;;;;;13.90;5.50;;;6.20;99.90;;;;;;10446049;28;20047;-51
2020/12/03 00:29:04;;;;;;;17.95;4.55;;;6.10;99.90;;;;;;10450894;28;20492;-50
2020/12/03 00:34:26;;;;;;;16.50;6.57;;;6.00;99.90;;;;;;10454334;28;20064;-51
2020/12/03 00:39:47;;;;;;;13.32;4.65;;;6.00;99.90;;;;;;10438911;28;20020;-51
2020/12/03 00:45:10;;;;;;;13.20;4.35;;;6.00;99.90;;;;;;10444782;28;20033;-51
2020/12/03 00:50:31;;;;;;;16.38;5.65;;;5.90;99.90;;;;;;10451990;28;20083;-51
2020/12/03 00:55:52;;;;;;;9.18;4.03;;;5.90;99.90;;;;;;10440810;28;20045;-51
2020/12/03 01:01:20;;;;;;;19.05;4.55;;;5.90;99.90;;;;;;10440545;28;20040;-51
2020/12/03 01:06:44;;;;;;;8.73;3.90;;;5.90;99.90;;;;;;10438521;28;20481;-51
2020/12/03 01:12:10;;;;;;;18.60;3.67;;;6.00;99.90;;;;;;10439208;28;20071;-51
2020/12/03 01:17:31;;;;;;;17.08;3.92;;;5.90;99.90;;;;;;10443697;28;20094;-51
2020/12/03 01:22:53;;;;;;;9.15;3.25;;;6.00;99.90;;;;;;10444697;28;20048;-51
2020/12/03 01:28:14;;;;;;;11.18;3.17;;;6.00;99.90;;;;;;10443425;28;20434;-51
2020/12/03 01:33:35;;;;;;;6.60;2.72;;;6.00;99.90;;;;;;10442474;28;20068;-51
2020/12/03 01:38:56;;;;;;;9.45;4.72;;;6.00;99.90;;;;;;10441683;28;20118;-51
2020/12/03 01:44:37;;;;;;;13.40;2.90;;;6.00;99.90;;;;;;10443057;28;20068;-50
2020/12/03 01:49:59;;;;;;;9.27;2.65;;;6.00;99.90;;;;;;10446853;28;20052;-51
2020/12/03 01:55:20;;;;;;;5.00;2.78;;;6.00;99.90;;;;;;10451810;28;20041;-51
2020/12/03 02:00:41;;;;;;;6.38;3.00;;;6.10;99.90;;;;;;10452721;28;20484;-51
2020/12/03 02:06:02;;;;;;;7.60;3.45;;;6.00;99.90;;;;;;10448906;28;20442;-51
2020/12/03 02:11:24;;;;;;;7.45;2.90;;;6.00;99.90;;;;;;10445253;28;20040;-50
2020/12/03 02:16:45;;;;;;;12.48;3.22;;;6.00;99.90;;;;;;10450350;28;20037;-51
2020/12/03 02:22:10;;;;;;;11.40;3.17;;;6.00;99.90;;;;;;10442735;28;20036;-51
2020/12/03 02:27:31;;;;;;;10.05;3.03;;;6.10;99.90;;;;;;10448835;28;20037;-51
2020/12/03 02:32:52;;;;;;;9.18;4.43;;;6.00;99.90;;;;;;10449586;28;20044;-51
2020/12/03 02:38:13;;;;;;;5.45;3.35;;;6.00;99.90;;;;;;10443344;28;20071;-51
2020/12/03 02:43:34;;;;;;;8.90;2.72;;;6.10;99.90;;;;;;10454446;28;20056;-51
2020/12/03 02:48:55;;;;;;;9.35;2.75;;;6.00;99.90;;;;;;10449228;28;20428;-51
2020/12/03 02:54:16;;;;;;;7.10;2.05;;;6.00;99.90;;;;;;10455625;28;20413;-51
2020/12/03 02:59:37;;;;;;;10.57;2.15;;;6.00;99.90;;;;;;10455688;28;20040;-51
2020/12/03 03:04:58;;;;;;;8.13;2.65;;;6.00;99.90;;;;;;10458131;28;20036;-51
2020/12/03 03:10:21;;;;;;;5.85;2.53;;;5.90;99.90;;;;;;10461862;28;20108;-51
2020/12/03 03:15:43;;;;;;;7.15;2.13;;;6.00;99.90;;;;;;10453564;28;20105;-51
2020/12/03 03:21:04;;;;;;;16.02;2.15;;;6.00;99.90;;;;;;10448064;28;20044;-51
2020/12/03 03:26:26;;;;;;;5.78;1.55;;;6.00;99.90;;;;;;10453810;28;20028;-51
2020/12/03 03:31:47;;;;;;;3.90;1.88;;;6.00;99.90;;;;;;10455159;28;20127;-51
2020/12/03 03:37:08;;;;;;;5.80;1.33;;;6.00;99.90;;;;;;10455198;28;20053;-50
2020/12/03 03:42:29;;;;;;;4.53;2.83;;;6.10;99.90;;;;;;10445839;28;20041;-51
2020/12/03 03:47:50;;;;;;;6.38;2.33;;;6.20;99.90;;;;;;10443023;28;20041;-51
2020/12/03 03:53:11;;;;;;;5.53;1.92;;;6.10;99.90;;;;;;10443678;28;20491;-51
2020/12/03 03:58:32;;;;;;;2.55;1.92;;;6.20;99.90;;;;;;10442204;28;20062;-51
2020/12/03 04:03:53;;;;;;;15.25;3.80;;;6.10;99.90;;;;;;10443435;28;20052;-51
2020/12/03 04:09:14;;;;;;;6.22;1.77;;;6.20;99.90;;;;;;10445915;28;20741;-51
2020/12/03 04:14:35;;;;;;;4.53;2.30;;;6.10;99.90;;;;;;10444442;28;20051;-51
2020/12/03 04:19:56;;;;;;;5.22;2.20;;;6.10;99.90;;;;;;10448926;28;20049;-51
2020/12/03 04:25:17;;;;;;;7.15;2.55;;;6.00;99.90;;;;;;10451167;28;20098;-51
2020/12/03 04:30:38;;;;;;;8.82;2.60;;;6.00;99.90;;;;;;10445643;28;20599;-51
2020/12/03 04:36:00;;;;;;;9.63;2.95;;;6.10;99.90;;;;;;10452143;28;20548;-51
2020/12/03 04:41:21;;;;;;;6.80;2.95;;;6.10;99.90;;;;;;10451252;28;20047;-51
2020/12/03 04:47:01;;;;;;;10.43;2.72;;;6.00;99.90;;;;;;10445369;28;20435;-51
2020/12/03 04:52:42;;;;;;;15.93;2.95;;;6.00;99.90;;;;;;10450026;28;20045;-51
2020/12/03 04:58:36;;;;;;;4.88;2.40;;;6.00;99.90;;;;;;10447785;28;20037;-51
2020/12/03 05:04:26;;;;;;;13.90;3.97;;;6.10;99.90;;;;;;10453784;28;20037;-51
2020/12/03 05:09:55;;;;;;;12.23;3.35;;;6.10;99.90;;;;;;10454149;28;20067;-51
2020/12/03 05:15:25;;;;;;;12.35;3.55;;;6.10;99.90;;;;;;10444445;28;20040;-51
2020/12/03 05:21:01;;;;;;;11.77;3.65;;;6.10;99.90;;;;;;10456858;28;20063;-51
2020/12/03 05:26:26;;;;;;;9.18;3.58;;;6.10;99.90;;;;;;10448532;28;20175;-51
2020/12/03 05:31:47;;;;;;;10.60;4.80;;;6.10;99.90;;;;;;10453000;28;20371;-51
2020/12/03 05:37:14;;;;;;;7.28;2.72;;;6.20;99.90;;;;;;10431896;28;20040;-51
2020/12/03 05:42:37;;;;;;;15.38;4.43;;;6.10;99.90;;;;;;10451666;28;20127;-51
2020/12/03 05:47:59;;;;;;;8.15;2.90;;;6.10;99.90;;;;;;10451341;28;20044;-51
2020/12/03 05:53:22;;;;;;;7.03;3.20;;;6.10;99.90;;;;;;10453433;28;20063;-51
2020/12/03 05:58:43;;;;;;;13.93;3.67;;;6.10;99.90;;;;;;10455033;28;20052;-52
2020/12/03 06:04:29;;;;;;;13.75;4.47;;;6.00;99.90;;;;;;10443464;28;20043;-51
2020/12/03 06:10:38;;;;;;;11.93;3.58;;;6.00;99.90;;;;;;10450714;28;20508;-51
2020/12/03 06:16:03;;;;;;;12.32;4.18;;;6.00;99.90;;;;;;10447443;28;20561;-51
2020/12/03 06:21:51;;;;;;;11.35;4.40;;;6.00;99.90;;;;;;10454310;28;20036;-51
2020/12/03 06:27:42;;;;;;;7.88;4.20;;;6.10;99.90;;;;;;10454090;28;20044;-51
2020/12/03 06:33:36;;;;;;;13.13;4.22;;;6.10;99.90;;;;;;10457165;28;20037;-51
2020/12/03 06:39:33;;;;;;;11.77;3.80;;;6.10;99.90;;;;;;10469462;28;20691;-51
2020/12/03 06:45:14;;;;;;;10.32;4.65;;;6.20;99.90;;;;;;10467272;28;20028;-51
2020/12/03 06:50:57;;;;;;;10.25;3.63;;;6.20;99.90;;;;;;10458655;28;20049;-51
2020/12/03 06:56:55;;;;;;;11.02;4.03;;;6.20;99.90;;;;;;10461581;28;20598;-51
2020/12/03 07:02:22;;;;;;;8.57;3.47;;;6.30;99.90;;;;;;10465034;28;20051;-51
2020/12/03 07:08:10;;;;;;;10.85;3.10;;;6.20;99.90;;;;;;10466275;28;20047;-51
2020/12/03 07:13:59;;;;;;;10.77;4.65;;;6.20;99.90;;;;;;10456773;28;20673;-51
2020/12/03 07:19:42;;;;;;;18.65;4.05;;;6.20;99.90;;;;;;10461434;28;20047;-52
2020/12/03 07:25:03;;;;;;;17.17;5.75;;;6.20;99.90;;;;;;10460277;28;20063;-51
2020/12/03 07:30:34;;;;;;;13.27;4.07;;;6.10;99.90;;;;;;10462158;28;20106;-51
2020/12/03 07:36:01;;;;;;;14.00;5.22;;;6.20;99.90;;;;;;10457580;28;20412;-51
2020/12/03 07:41:24;;;;;;;14.27;4.78;;;6.20;99.90;;;;;;10461700;28;20361;-51
2020/12/03 07:46:46;;;;;;;10.98;4.22;;;6.20;99.90;;;;;;10462995;28;20043;-51
2020/12/03 07:52:31;;;;;;;16.20;4.32;;;6.30;99.90;;;;;;10458447;28;22087;-52
2020/12/03 07:57:59;;;;;;;12.80;5.18;;;6.30;99.90;;;;;;10463842;28;20036;-51
2020/12/03 08:03:48;;;;;;;10.27;3.42;;;6.30;99.90;;;;;;10471146;28;21008;-51
2020/12/03 08:09:13;;;;;;;17.63;5.83;;;6.30;99.90;;;;;;10475222;28;20040;-51
2020/12/03 08:14:40;;;;;;;15.75;6.07;;;6.30;99.90;;;;;;10476395;28;20044;-51
2020/12/03 08:20:04;;;;;;;11.02;4.72;;;6.30;99.90;;;;;;10475603;28;20060;-51
2020/12/03 08:25:30;;;;;;;14.40;5.95;;;6.40;99.90;;;;;;10473148;28;20043;-51
2020/12/03 08:30:51;;;;;;;16.27;6.40;;;6.40;99.90;;;;;;10471834;28;20025;-51
2020/12/03 08:36:13;;;;;;;15.68;5.05;;;6.40;99.90;;;;;;10457715;28;20557;-51
2020/12/03 08:41:34;;;;;;;23.23;7.38;;;6.40;99.90;;;;;;10474197;28;20047;-51
2020/12/03 08:46:57;;;;;;;18.60;6.10;;;6.40;99.90;;;;;;10472891;28;20037;-52
2020/12/03 08:52:18;;;;;;;17.67;5.97;;;6.40;99.90;;;;;;10467183;28;20396;-51
2020/12/03 08:57:42;;;;;;;21.08;5.82;;;6.40;99.90;;;;;;10473160;28;20583;-51
2020/12/03 09:03:05;;;;;;;29.10;7.57;;;6.40;99.90;;;;;;10472148;28;20040;-51
2020/12/03 09:08:27;;;;;;;21.45;5.82;;;6.40;99.90;;;;;;10470000;28;20157;-51
2020/12/03 09:13:54;;;;;;;19.20;6.10;;;6.40;99.90;;;;;;10463722;28;20548;-51
2020/12/03 09:19:25;;;;;;;24.48;5.72;;;6.30;99.90;;;;;;10471084;28;20477;-51
2020/12/03 09:24:51;;;;;;;13.70;6.35;;;6.30;99.90;;;;;;10473243;28;20044;-51
2020/12/03 09:30:30;;;;;;;14.25;5.70;;;6.30;99.90;;;;;;10466705;28;20112;-51
2020/12/03 09:35:52;;;;;;;10.60;4.18;;;6.30;99.90;;;;;;10468357;28;20036;-51
2020/12/03 09:41:13;;;;;;;12.85;6.35;;;6.30;99.90;;;;;;10470351;28;20041;-51
2020/12/03 09:46:38;;;;;;;12.80;4.93;;;6.40;99.90;;;;;;10472863;28;20033;-51
2020/12/03 09:52:03;;;;;;;14.20;3.45;;;6.40;99.90;;;;;;10471890;28;20029;-51
2020/12/03 09:57:24;;;;;;;13.82;5.75;;;6.40;99.90;;;;;;10467434;28;20115;-51
2020/12/03 10:02:54;;;;;;;10.55;4.72;;;6.40;99.90;;;;;;10483327;28;20036;-51
2020/12/03 10:08:30;;;;;;;15.98;4.03;;;6.40;99.90;;;;;;10481874;28;20072;-51
2020/12/03 10:14:28;;;;;;;9.55;3.42;;;6.40;99.90;;;;;;10477614;28;20091;-51
2020/12/03 10:19:50;;;;;;;13.43;4.82;;;6.40;99.90;;;;;;10481131;28;20048;-51
2020/12/03 10:25:17;;;;;;;9.52;3.67;;;6.50;99.90;;;;;;10479650;28;20044;-51
2020/12/03 10:30:39;;;;;;;11.38;3.15;;;6.50;99.90;;;;;;10478199;28;20036;-51
2020/12/03 10:36:16;;;;;;;12.27;5.60;;;6.40;99.90;;;;;;10479181;28;20395;-51
2020/12/03 10:41:38;;;;;;;9.63;3.83;;;6.40;99.90;;;;;;10482253;28;20033;-51
2020/12/03 10:47:04;;;;;;;8.45;3.30;;;6.50;99.90;;;;;;10479337;28;20125;-51
2020/12/03 10:52:27;;;;;;;10.82;4.43;;;6.50;99.90;;;;;;10479224;28;20028;-51
2020/12/03 10:58:01;;;;;;;13.52;4.97;;;6.40;99.90;;;;;;10474976;28;20074;-51
2020/12/03 11:03:28;;;;;;;10.05;4.03;;;6.40;99.90;;;;;;10473790;28;20120;-51
2020/12/03 11:08:51;;;;;;;11.45;3.78;;;6.50;99.90;;;;;;10478157;28;20401;-51
2020/12/03 11:14:14;;;;;;;21.00;3.80;;;6.50;99.90;;;;;;10467166;28;20561;-51
2020/12/03 11:19:36;;;;;;;10.23;4.13;;;6.50;99.90;;;;;;10477284;28;20122;-51
2020/12/03 11:25:03;;;;;;;15.40;5.43;;;6.50;99.90;;;;;;10478043;28;20039;-51
2020/12/03 11:30:24;;;;;;;8.75;3.35;;;6.50;99.90;;;;;;10478968;28;20166;-51
2020/12/03 11:35:45;;;;;;;11.27;4.35;;;6.50;99.90;;;;;;10456675;28;20053;-51
2020/12/03 11:41:14;;;;;;;10.20;5.00;;;6.50;99.90;;;;;;10468832;28;20451;-51
2020/12/03 11:52:16;;;;;;;9.73;3.92;;;6.50;99.90;;;;;;10455890;28;20086;-51
2020/12/03 11:57:37;;;;;;;12.55;3.85;;;6.50;99.90;;;;;;10474521;28;20032;-51
2020/12/03 12:03:03;;;;;;;10.80;4.03;;;6.50;99.90;;;;;;10451580;28;20139;-51
2020/12/03 12:08:52;;;;;;;11.55;2.95;;;6.60;99.90;;;;;;10450206;28;20112;-51
2020/12/03 12:14:05;;;;;;;10.90;3.88;;;6.60;99.90;;;;;;10456172;28;20117;-51
2020/12/03 12:19:28;;;;;;;10.30;3.70;;;6.60;99.90;;;;;;10458369;28;20040;-51
2020/12/03 12:24:49;;;;;;;12.65;4.22;;;6.60;99.90;;;;;;10464693;28;20393;-51
2020/12/03 12:30:10;;;;;;;14.98;5.32;;;6.70;99.90;;;;;;10464141;28;20037;-51
2020/12/03 12:35:31;;;;;;;14.65;4.07;;;6.60;99.90;;;;;;10458516;28;20044;-51
2020/12/03 12:40:52;;;;;;;8.13;3.97;;;6.60;99.90;;;;;;10458771;28;20441;-50
2020/12/03 12:46:18;;;;;;;6.18;2.55;;;6.50;99.90;;;;;;10460120;28;20032;-51
2020/12/03 12:51:39;;;;;;;16.08;3.10;;;6.50;99.90;;;;;;10458546;28;20033;-51
2020/12/03 12:57:02;;;;;;;8.18;3.75;;;6.60;99.90;;;;;;10459656;28;20044;-51
2020/12/03 13:02:23;;;;;;;12.93;4.20;;;6.60;99.90;;;;;;10464029;28;21569;-51
2020/12/03 13:07:44;;;;;;;7.80;3.38;;;6.60;99.90;;;;;;10454676;28;20040;-51
2020/12/03 13:13:05;;;;;;;6.90;3.05;;;6.60;99.90;;;;;;10454831;28;20399;-51
2020/12/03 13:18:26;;;;;;;4.88;2.63;;;6.60;99.90;;;;;;10456809;28;20643;-51
2020/12/03 13:23:47;;;;;;;5.85;2.80;;;6.50;99.90;;;;;;10457807;28;20037;-51
2020/12/03 13:29:08;;;;;;;6.28;3.13;;;6.60;99.90;;;;;;10444258;28;20064;-51
2020/12/03 13:34:29;;;;;;;9.38;3.05;;;6.50;99.90;;;;;;10456147;28;20495;-48
2020/12/03 13:39:50;;;;;;;8.52;2.70;;;6.40;99.90;;;;;;10458305;28;20075;-51
2020/12/03 13:45:12;;;;;;;7.07;3.30;;;6.50;99.90;;;;;;10456773;28;20048;-51
2020/12/03 13:50:34;;;;;;;4.40;1.92;;;6.40;99.90;;;;;;10452807;28;20037;-51
2020/12/03 13:55:55;;;;;;;7.95;2.33;;;6.40;99.90;;;;;;10457093;28;20132;-48
2020/12/03 14:01:16;;;;;;;5.50;1.95;;;6.40;99.90;;;;;;10455442;28;20036;-48
2020/12/03 14:06:36;;;;;;;5.43;2.33;;;6.40;99.90;;;;;;10454183;28;20037;-48
2020/12/03 14:11:57;;;;;;;5.60;1.70;;;6.40;99.90;;;;;;10443264;28;20693;-48
2020/12/03 14:17:18;;;;;;;11.43;3.08;;;6.40;99.90;;;;;;10460238;28;20102;-48
2020/12/03 14:22:39;;;;;;;5.07;2.22;;;6.30;99.90;;;;;;10454877;28;20492;-48
2020/12/03 14:28:00;;;;;;;2.95;1.23;;;6.30;99.90;;;;;;10441854;28;20067;-48
2020/12/03 14:33:22;;;;;;;7.20;2.03;;;6.20;99.90;;;;;;10452830;28;20107;-48
2020/12/03 14:38:43;;;;;;;2.40;1.20;;;6.20;99.90;;;;;;10454974;28;20041;-48
2020/12/03 14:44:05;;;;;;;2.78;1.20;;;6.10;99.90;;;;;;10455462;28;20464;-48
2020/12/03 14:49:26;;;;;;;2.53;0.95;;;6.00;99.90;;;;;;10466329;28;20518;-48
2020/12/03 14:54:47;;;;;;;8.73;1.30;;;5.90;99.90;;;;;;10465164;28;20145;-48
2020/12/03 15:00:08;;;;;;;3.53;1.38;;;5.90;99.90;;;;;;10451976;28;20123;-48
2020/12/03 15:05:29;;;;;;;3.58;1.77;;;5.80;99.90;;;;;;10462854;28;20056;-48
2020/12/03 15:10:55;;;;;;;4.50;1.45;;;5.70;99.90;;;;;;10459953;28;20041;-48
2020/12/03 15:16:16;;;;;;;3.38;1.45;;;5.80;99.90;;;;;;10464390;28;20043;-48
2020/12/03 15:21:37;;;;;;;2.53;0.93;;;5.70;99.90;;;;;;10467158;28;20123;-48
2020/12/03 15:26:58;;;;;;;2.90;0.98;;;5.70;99.90;;;;;;10463989;28;20491;-49
2020/12/03 15:32:21;;;;;;;2.50;1.08;;;5.70;99.90;;;;;;10462859;28;20405;-48
2020/12/03 15:37:42;;;;;;;1.90;0.77;;;5.70;99.90;;;;;;10464161;28;20791;-49
2020/12/03 15:43:03;;;;;;;2.85;1.20;;;5.70;99.90;;;;;;10456742;28;20653;-48
2020/12/03 15:48:34;;;;;;;1.13;0.88;;;5.70;99.90;;;;;;10457614;28;20056;-49
2020/12/03 15:53:55;;;;;;;3.30;1.30;;;5.70;99.90;;;;;;10458764;28;20043;-48
2020/12/03 15:59:18;;;;;;;3.80;1.58;;;5.80;99.90;;;;;;10454401;28;20045;-49
2020/12/03 16:04:41;;;;;;;2.38;1.30;;;5.80;99.90;;;;;;10458702;28;20040;-48
2020/12/03 16:10:02;;;;;;;3.40;1.33;;;5.70;99.90;;;;;;10461548;28;20461;-49
2020/12/03 16:15:23;;;;;;;2.88;1.15;;;5.70;99.90;;;;;;10464317;28;20420;-48
2020/12/03 16:20:44;;;;;;;3.28;1.85;;;5.70;99.90;;;;;;10461651;28;20481;-49
2020/12/03 16:26:05;;;;;;;4.85;1.35;;;5.80;99.90;;;;;;10462742;28;20032;-49
2020/12/03 16:31:31;;;;;;;4.20;1.55;;;5.70;99.90;;;;;;10457104;28;20389;-49
2020/12/03 16:36:52;;;;;;;5.07;2.05;;;5.80;99.90;;;;;;10459510;28;20115;-49
2020/12/03 16:42:13;;;;;;;4.18;1.38;;;5.80;99.90;;;;;;10455532;28;20032;-49
2020/12/03 16:47:37;;;;;;;4.22;1.30;;;5.80;99.90;;;;;;10461586;28;20097;-50
2020/12/03 16:52:58;;;;;;;3.40;1.30;;;5.70;99.90;;;;;;10450821;28;20086;-49
2020/12/03 16:58:19;;;;;;;3.13;1.20;;;5.70;99.90;;;;;;10456689;28;20405;-49
2020/12/03 17:03:40;;;;;;;2.58;0.75;;;5.70;99.90;;;;;;10453761;28;20032;-49
2020/12/03 17:09:01;;;;;;;1.38;0.80;;;5.70;99.90;;;;;;10455053;28;20039;-48
2020/12/03 17:14:23;;;;;;;3.85;1.60;;;5.80;99.90;;;;;;10457965;28;20060;-50
2020/12/03 17:19:44;;;;;;;2.55;1.17;;;5.80;99.90;;;;;;10456137;28;20529;-48
2020/12/03 17:25:05;;;;;;;3.60;1.25;;;5.80;99.90;;;;;;10450886;28;20119;-49
2020/12/03 17:30:26;;;;;;;3.40;1.25;;;5.80;99.90;;;;;;10447492;28;20047;-49
2020/12/03 17:35:47;;;;;;;4.88;0.90;;;5.80;99.90;;;;;;10457436;28;20060;-49
2020/12/03 17:41:08;;;;;;;2.38;0.82;;;5.80;99.90;;;;;;10456933;28;20033;-49
2020/12/03 17:46:29;;;;;;;1.15;0.50;;;5.90;99.90;;;;;;10458182;28;20050;-49
2020/12/03 17:51:51;;;;;;;2.08;1.00;;;5.90;99.90;;;;;;10466063;28;20492;-48
2020/12/03 17:57:12;;;;;;;4.00;1.20;;;5.90;99.90;;;;;;10455572;28;20395;-49
2020/12/03 18:02:33;;;;;;;3.25;1.27;;;5.90;99.90;;;;;;10459814;28;20120;-49
2020/12/03 18:07:54;;;;;;;2.30;1.08;;;5.90;99.90;;;;;;10457960;28;20036;-49
2020/12/03 18:13:15;;;;;;;3.08;1.23;;;5.80;99.90;;;;;;10450268;28;20064;-49
2020/12/03 18:18:36;;;;;;;2.00;1.00;;;5.80;99.90;;;;;;10457959;28;20458;-49
2020/12/03 18:23:57;;;;;;;2.33;0.98;;;5.80;99.90;;;;;;10459204;28;20522;-48
2020/12/03 18:29:18;;;;;;;3.33;1.63;;;5.80;99.90;;;;;;10457772;28;20162;-49
2020/12/03 18:34:39;;;;;;;3.05;0.95;;;5.70;99.90;;;;;;10439793;28;20066;-49
2020/12/03 18:40:00;;;;;;;1.50;0.80;;;5.70;99.90;;;;;;10454883;28;20060;-49
2020/12/03 18:45:21;;;;;;;2.30;1.25;;;5.70;99.90;;;;;;10451082;28;20076;-49
2020/12/03 18:50:42;;;;;;;1.80;1.33;;;5.70;99.90;;;;;;10456051;28;20068;-49
2020/12/03 18:56:07;;;;;;;1.63;0.70;;;5.60;99.90;;;;;;10449354;28;20120;-49
2020/12/03 19:01:28;;;;;;;3.78;1.15;;;5.60;99.90;;;;;;10452570;28;20384;-49
2020/12/03 19:06:49;;;;;;;1.30;0.73;;;5.50;99.90;;;;;;10453312;28;20169;-49
2020/12/03 19:12:11;;;;;;;6.80;0.63;;;5.60;99.90;;;;;;10449171;28;20091;-49
2020/12/03 19:17:32;;;;;;;2.13;1.17;;;5.50;99.90;;;;;;10458119;28;20048;-49
2020/12/03 19:22:53;;;;;;;1.63;0.80;;;5.50;99.90;;;;;;10448201;28;20119;-49
2020/12/03 19:28:14;;;;;;;1.90;0.88;;;5.50;99.90;;;;;;10456067;28;20094;-48
2020/12/03 19:33:35;;;;;;;3.38;1.52;;;5.50;99.90;;;;;;10454934;28;20041;-48
2020/12/03 19:38:56;;;;;;;4.68;2.10;;;5.50;99.90;;;;;;10452076;28;20500;-48
2020/12/03 19:44:17;;;;;;;2.60;1.23;;;5.40;99.90;;;;;;10452894;28;20625;-49
2020/12/03 19:49:38;;;;;;;5.53;1.50;;;5.50;99.90;;;;;;10471888;28;20494;-49
2020/12/03 19:54:59;;;;;;;5.45;2.00;;;5.40;99.90;;;;;;10473509;28;20041;-49
2020/12/03 20:00:20;;;;;;;5.57;2.03;;;5.40;99.90;;;;;;10472303;28;20442;-50
2020/12/03 20:05:41;;;;;;;3.92;1.38;;;5.40;99.90;;;;;;10479440;28;20620;-50
2020/12/03 20:11:03;;;;;;;8.43;2.30;;;5.30;99.90;;;;;;10475779;28;20032;-50
2020/12/03 20:16:24;;;;;;;2.92;1.00;;;5.30;99.90;;;;;;10479210;28;20123;-49
2020/12/03 20:21:50;;;;;;;2.85;1.25;;;5.30;99.90;;;;;;10480542;28;20044;-50
2020/12/03 20:27:11;;;;;;;4.65;2.03;;;5.30;99.90;;;;;;10479226;28;20056;-50
2020/12/03 20:32:32;;;;;;;2.10;0.80;;;5.30;99.90;;;;;;10476892;28;20040;-50
2020/12/03 20:37:53;;;;;;;5.32;1.95;;;5.30;99.90;;;;;;10480418;28;20040;-49
2020/12/03 20:43:14;;;;;;;3.38;1.73;;;5.30;99.90;;;;;;10471173;28;20033;-49
2020/12/03 20:48:35;;;;;;;3.20;1.02;;;5.30;99.90;;;;;;10480670;28;20576;-50
2020/12/03 20:53:56;;;;;;;4.13;1.73;;;5.30;99.90;;;;;;10478248;28;20589;-50
2020/12/03 20:59:17;;;;;;;3.70;1.33;;;5.20;99.90;;;;;;10469152;28;20041;-49
2020/12/03 21:04:38;;;;;;;4.70;1.70;;;5.30;99.90;;;;;;10474537;28;20044;-49
2020/12/03 21:09:59;;;;;;;3.42;1.30;;;5.20;99.90;;;;;;10477632;28;20044;-49
2020/12/03 21:15:20;;;;;;;9.57;0.77;;;5.20;99.90;;;;;;10466910;28;20040;-49
2020/12/03 21:20:41;;;;;;;1.63;0.77;;;5.30;99.90;;;;;;10475552;28;20565;-50
2020/12/03 21:26:02;;;;;;;2.30;0.82;;;5.20;99.90;;;;;;10476673;28;20056;-50
2020/12/03 21:31:25;;;;;;;3.53;0.90;;;5.20;99.90;;;;;;10475079;28;20051;-50
2020/12/03 21:36:46;;;;;;;3.88;0.95;;;5.20;99.90;;;;;;10474213;28;20048;-50
2020/12/03 21:42:06;;;;;;;9.88;1.88;;;5.30;99.90;;;;;;10462578;28;20044;-50
2020/12/03 21:47:27;;;;;;;2.38;1.05;;;5.30;99.90;;;;;;10476877;28;20048;-49
2020/12/03 21:52:48;;;;;;;4.03;1.23;;;5.30;99.90;;;;;;10475109;28;20044;-49
2020/12/03 21:58:09;;;;;;;2.55;1.42;;;5.20;99.90;;;;;;10480638;28;20101;-49
2020/12/03 22:03:30;;;;;;;1.63;0.88;;;5.20;99.90;;;;;;10483030;28;20033;-48
2020/12/03 22:08:51;;;;;;;4.38;1.05;;;5.20;99.90;;;;;;10484086;28;20033;-50
2020/12/03 22:14:13;;;;;;;2.78;1.30;;;5.30;99.90;;;;;;10481707;28;20032;-49
2020/12/03 22:19:34;;;;;;;1.77;0.80;;;5.30;99.90;;;;;;10483016;28;20131;-50
2020/12/03 22:24:55;;;;;;;3.20;1.20;;;5.30;99.90;;;;;;10480831;28;20036;-49
2020/12/03 22:30:16;;;;;;;3.42;0.95;;;5.20;99.90;;;;;;10468152;28;20044;-50
2020/12/03 22:35:37;;;;;;;1.25;0.73;;;5.30;99.90;;;;;;10464664;28;20480;-49
2020/12/03 22:40:58;;;;;;;3.42;1.98;;;5.30;99.90;;;;;;10447756;28;20055;-50
2020/12/03 22:46:19;;;;;;;1.83;0.70;;;5.30;99.90;;;;;;10464293;28;20032;-49
2020/12/03 22:51:40;;;;;;;2.25;1.13;;;5.30;99.90;;;;;;10459491;28;20047;-49
2020/12/03 22:57:01;;;;;;;4.07;1.30;;;5.30;99.90;;;;;;10459401;28;20044;-49
2020/12/03 23:02:24;;;;;;;3.22;1.20;;;5.30;99.90;;;;;;10461269;28;20040;-49
2020/12/03 23:07:45;;;;;;;1.83;0.70;;;5.30;99.90;;;;;;10459370;28;20044;-49
2020/12/03 23:13:06;;;;;;;2.10;0.52;;;5.30;99.90;;;;;;10452333;28;20051;-49
2020/12/03 23:18:27;;;;;;;4.72;1.70;;;5.30;99.90;;;;;;10457577;28;20072;-50
2020/12/03 23:23:48;;;;;;;3.92;1.38;;;5.30;99.90;;;;;;10457752;28;20048;-49
2020/12/03 23:29:10;;;;;;;2.40;0.77;;;5.30;99.90;;;;;;10453150;28;20044;-49
2020/12/03 23:34:31;;;;;;;2.70;0.88;;;5.30;99.90;;;;;;10460067;28;20126;-49
2020/12/03 23:39:52;;;;;;;4.90;1.13;;;5.20;99.90;;;;;;10470317;28;20041;-50
2020/12/03 23:45:13;;;;;;;1.48;0.70;;;5.30;99.90;;;;;;10468346;28;20051;-50
2020/12/03 23:50:34;;;;;;;1.45;0.80;;;5.30;99.90;;;;;;10466335;28;20043;-50
2020/12/03 23:55:55;;;;;;;1.42;0.80;;;5.20;99.90;;;;;;10462376;28;20480;-50
